sensor_id;sensor_type;location;lat;lon;timestamp;pressure;altitude;pressure_sealevel;temperature;humidity
50592;BME280;36548;50.506;30.834;2022-11-27T00:30:19;101036.97;;;4.66;70.28
50592;BME280;36548;50.506;30.834;2022-11-27T00:31:36;101039.43;;;4.73;69.35
50592;BME280;36548;50.506;30.834;2022-11-27T00:32:46;101044.04;;;4.67;69.50
50592;BME280;36548;50.506;30.834;2022-11-27T00:34:21;101039.85;;;4.89;70.12
50592;BME280;36548;50.506;30.834;2022-11-27T00:35:30;101044.61;;;4.78;69.72
50592;BME280;36548;50.506;30.834;2022-11-27T00:36:45;101032.08;;;4.82;69.82
50592;BME280;36548;50.506;30.834;2022-11-27T00:37:57;101043.23;;;4.63;69.62
50592;BME280;36548;50.506;30.834;2022-11-27T00:39:12;101029.74;;;4.71;69.72
50592;BME280;36548;50.506;30.834;2022-11-27T00:40:21;101036.16;;;4.62;70.07
50592;BME280;36548;50.506;30.834;2022-11-27T00:41:30;101037.30;;;4.53;69.85
50592;BME280;36548;50.506;30.834;2022-11-27T00:42:39;101035.86;;;4.41;69.82
50592;BME280;36548;50.506;30.834;2022-11-27T00:43:49;101029.86;;;4.33;70.20
50592;BME280;36548;50.506;30.834;2022-11-27T00:44:59;101030.91;;;4.26;70.40
50592;BME280;36548;50.506;30.834;2022-11-27T00:46:16;101030.81;;;4.31;70.81
50592;BME280;36548;50.506;30.834;2022-11-27T00:47:25;101033.78;;;4.18;71.20
50592;BME280;36548;50.506;30.834;2022-11-27T00:48:34;101030.41;;;4.12;70.46
50592;BME280;36548;50.506;30.834;2022-11-27T00:49:44;101028.47;;;4.18;70.91
50592;BME280;36548;50.506;30.834;2022-11-27T00:50:59;101030.09;;;4.24;71.01
50592;BME280;36548;50.506;30.834;2022-11-27T00:52:08;101022.94;;;4.26;70.54
50592;BME280;36548;50.506;30.834;2022-11-27T00:53:18;101027.30;;;4.29;70.17
50592;BME280;36548;50.506;30.834;2022-11-27T00:54:27;101020.18;;;4.31;70.15
50592;BME280;36548;50.506;30.834;2022-11-27T00:55:37;101027.89;;;4.40;70.62
50592;BME280;36548;50.506;30.834;2022-11-27T00:56:46;101032.22;;;4.44;70.27
50592;BME280;36548;50.506;30.834;2022-11-27T00:57:56;101030.41;;;4.46;69.92
50592;BME280;36548;50.506;30.834;2022-11-27T00:59:11;101023.85;;;4.59;70.03
50592;BME280;36548;50.506;30.834;2022-11-27T01:00:22;101030.22;;;4.52;70.11
50592;BME280;36548;50.506;30.834;2022-11-27T01:01:33;101022.87;;;4.62;70.32
50592;BME280;36548;50.506;30.834;2022-11-27T01:02:44;101021.81;;;4.69;70.30
50592;BME280;36548;50.506;30.834;2022-11-27T01:03:54;101030.41;;;4.79;70.01
50592;BME280;36548;50.506;30.834;2022-11-27T01:05:10;101021.28;;;4.88;68.91
50592;BME280;36548;50.506;30.834;2022-11-27T01:06:19;101026.13;;;4.73;68.52
50592;BME280;36548;50.506;30.834;2022-11-27T01:07:28;101027.79;;;4.77;68.72
50592;BME280;36548;50.506;30.834;2022-11-27T01:08:38;101020.72;;;4.76;68.78
50592;BME280;36548;50.506;30.834;2022-11-27T01:09:49;101019.16;;;4.69;69.03
50592;BME280;36548;50.506;30.834;2022-11-27T01:10:59;101020.16;;;4.64;69.78
50592;BME280;36548;50.506;30.834;2022-11-27T01:12:09;101023.91;;;4.56;69.79
50592;BME280;36548;50.506;30.834;2022-11-27T01:13:19;101018.06;;;4.43;69.83
50592;BME280;36548;50.506;30.834;2022-11-27T01:14:42;101022.62;;;4.38;69.86
50592;BME280;36548;50.506;30.834;2022-11-27T01:16:05;101018.78;;;4.16;70.05
50592;BME280;36548;50.506;30.834;2022-11-27T01:17:21;101009.19;;;4.10;70.70
50592;BME280;36548;50.506;30.834;2022-11-27T01:18:32;101026.34;;;3.97;71.44
50592;BME280;36548;50.506;30.834;2022-11-27T01:19:48;101019.30;;;3.96;71.47
50592;BME280;36548;50.506;30.834;2022-11-27T01:21:02;101031.13;;;3.82;71.93
50592;BME280;36548;50.506;30.834;2022-11-27T01:22:18;101021.15;;;3.92;72.00
50592;BME280;36548;50.506;30.834;2022-11-27T01:23:30;101024.88;;;3.85;72.04
50592;BME280;36548;50.506;30.834;2022-11-27T01:24:39;101023.03;;;3.87;71.40
50592;BME280;36548;50.506;30.834;2022-11-27T01:25:54;101019.77;;;4.12;71.85
50592;BME280;36548;50.506;30.834;2022-11-27T01:27:03;101026.12;;;4.06;71.52
50592;BME280;36548;50.506;30.834;2022-11-27T01:28:14;101031.21;;;4.15;71.47
50592;BME280;36548;50.506;30.834;2022-11-27T01:29:29;101024.69;;;4.27;70.57
50592;BME280;36548;50.506;30.834;2022-11-27T01:30:39;101022.98;;;4.24;70.91
50592;BME280;36548;50.506;30.834;2022-11-27T01:31:48;101028.16;;;4.31;70.80
50592;BME280;36548;50.506;30.834;2022-11-27T01:32:58;101025.41;;;4.34;70.28
50592;BME280;36548;50.506;30.834;2022-11-27T01:34:11;101031.54;;;4.36;69.96
50592;BME280;36548;50.506;30.834;2022-11-27T01:35:26;101027.52;;;4.54;70.32
50592;BME280;36548;50.506;30.834;2022-11-27T01:36:35;101032.07;;;4.50;70.47
50592;BME280;36548;50.506;30.834;2022-11-27T01:37:44;101030.17;;;4.54;69.96
50592;BME280;36548;50.506;30.834;2022-11-27T01:38:54;101035.30;;;4.61;70.07
50592;BME280;36548;50.506;30.834;2022-11-27T01:40:05;101029.03;;;4.64;69.49
50592;BME280;36548;50.506;30.834;2022-11-27T01:42:32;101019.81;;;4.77;69.46
50592;BME280;36548;50.506;30.834;2022-11-27T01:43:48;101024.86;;;4.54;68.78
50592;BME280;36548;50.506;30.834;2022-11-27T01:45:10;101015.73;;;4.64;69.96
50592;BME280;36548;50.506;30.834;2022-11-27T01:48:02;101014.59;;;4.41;70.53
50592;BME280;36548;50.506;30.834;2022-11-27T01:50:59;101019.52;;;3.86;71.24
50592;BME280;36548;50.506;30.834;2022-11-27T01:52:31;101025.89;;;3.79;71.68
50592;BME280;36548;50.506;30.834;2022-11-27T01:53:40;101030.19;;;3.85;72.05
50592;BME280;36548;50.506;30.834;2022-11-27T01:54:53;101028.17;;;3.95;72.10
50592;BME280;36548;50.506;30.834;2022-11-27T01:56:08;101022.43;;;4.12;71.61
50592;BME280;36548;50.506;30.834;2022-11-27T01:57:23;101038.41;;;4.10;71.39
50592;BME280;36548;50.506;30.834;2022-11-27T01:58:38;101025.50;;;4.31;71.16
50592;BME280;36548;50.506;30.834;2022-11-27T01:59:50;101032.66;;;4.27;71.15
50592;BME280;36548;50.506;30.834;2022-11-27T02:01:06;101025.95;;;4.47;70.69
50592;BME280;36548;50.506;30.834;2022-11-27T02:02:15;101024.33;;;4.41;70.46
50592;BME280;36548;50.506;30.834;2022-11-27T02:03:32;101014.21;;;4.55;69.95
50592;BME280;36548;50.506;30.834;2022-11-27T02:04:41;101022.38;;;4.48;69.76
50592;BME280;36548;50.506;30.834;2022-11-27T02:05:51;101024.95;;;4.51;69.58
50592;BME280;36548;50.506;30.834;2022-11-27T02:07:06;101020.44;;;4.54;69.33
50592;BME280;36548;50.506;30.834;2022-11-27T02:08:17;101020.90;;;4.37;69.71
50592;BME280;36548;50.506;30.834;2022-11-27T02:09:27;101021.95;;;4.30;70.28
50592;BME280;36548;50.506;30.834;2022-11-27T02:12:17;101024.06;;;4.17;71.27
50592;BME280;36548;50.506;30.834;2022-11-27T02:13:36;101017.94;;;4.14;71.01
50592;BME280;36548;50.506;30.834;2022-11-27T02:14:55;101027.11;;;4.02;71.63
50592;BME280;36548;50.506;30.834;2022-11-27T02:17:54;101023.68;;;3.97;71.21
50592;BME280;36548;50.506;30.834;2022-11-27T02:20:49;101019.55;;;4.21;70.62
50592;BME280;36548;50.506;30.834;2022-11-27T02:22:04;101023.97;;;4.20;70.92
50592;BME280;36548;50.506;30.834;2022-11-27T02:29:15;101022.66;;;4.37;70.32
50592;BME280;36548;50.506;30.834;2022-11-27T02:30:35;101017.92;;;4.48;71.18
50592;BME280;36548;50.506;30.834;2022-11-27T02:31:51;101022.84;;;4.31;70.92
50592;BME280;36548;50.506;30.834;2022-11-27T02:33:05;101024.86;;;4.21;70.68
50592;BME280;36548;50.506;30.834;2022-11-27T06:42:22;101093.45;;;1.74;87.47
50592;BME280;36548;50.506;30.834;2022-11-27T06:43:33;101104.03;;;1.72;86.97
50592;BME280;36548;50.506;30.834;2022-11-27T06:44:49;101089.62;;;1.93;86.66
50592;BME280;36548;50.506;30.834;2022-11-27T06:45:59;101101.09;;;1.94;86.05
50592;BME280;36548;50.506;30.834;2022-11-27T06:47:08;101101.73;;;2.08;85.50
50592;BME280;36548;50.506;30.834;2022-11-27T06:48:17;101097.94;;;2.25;84.81
50592;BME280;36548;50.506;30.834;2022-11-27T06:49:33;101093.86;;;2.56;84.31
50592;BME280;36548;50.506;30.834;2022-11-27T06:50:42;101098.17;;;2.62;83.57
50592;BME280;36548;50.506;30.834;2022-11-27T06:51:57;101094.11;;;2.91;82.22
50592;BME280;36548;50.506;30.834;2022-11-27T06:53:07;101097.66;;;2.90;80.75
50592;BME280;36548;50.506;30.834;2022-11-27T06:54:24;101092.70;;;3.18;80.69
50592;BME280;36548;50.506;30.834;2022-11-27T06:55:36;101105.08;;;3.18;79.75
50592;BME280;36548;50.506;30.834;2022-11-27T06:56:48;101093.35;;;3.30;79.64
50592;BME280;36548;50.506;30.834;2022-11-27T06:57:57;101096.58;;;3.44;79.18
50592;BME280;36548;50.506;30.834;2022-11-27T06:59:12;101085.42;;;3.69;79.10
50592;BME280;36548;50.506;30.834;2022-11-27T07:00:25;101090.77;;;3.67;78.44
50592;BME280;36548;50.506;30.834;2022-11-27T07:01:33;101087.95;;;3.75;77.26
50592;BME280;36548;50.506;30.834;2022-11-27T07:02:52;101086.61;;;3.95;76.75
50592;BME280;36548;50.506;30.834;2022-11-27T07:04:01;101097.33;;;3.90;75.92
50592;BME280;36548;50.506;30.834;2022-11-27T07:05:16;101088.09;;;4.06;75.41
50592;BME280;36548;50.506;30.834;2022-11-27T07:06:26;101094.38;;;4.02;75.41
50592;BME280;36548;50.506;30.834;2022-11-27T07:07:35;101092.55;;;4.06;74.62
50592;BME280;36548;50.506;30.834;2022-11-27T07:08:46;101097.73;;;4.10;74.29
50592;BME280;36548;50.506;30.834;2022-11-27T07:10:21;101084.87;;;4.30;74.47
50592;BME280;36548;50.506;30.834;2022-11-27T07:11:31;101081.41;;;4.26;74.53
50592;BME280;36548;50.506;30.834;2022-11-27T07:12:40;101089.33;;;4.29;73.41
50592;BME280;36548;50.506;30.834;2022-11-27T07:13:50;101096.31;;;4.33;73.21
50592;BME280;36548;50.506;30.834;2022-11-27T07:15:07;101090.70;;;4.44;72.17
50592;BME280;36548;50.506;30.834;2022-11-27T07:16:17;101091.86;;;4.34;72.11
50592;BME280;36548;50.506;30.834;2022-11-27T07:17:33;101090.56;;;4.50;72.38
50592;BME280;36548;50.506;30.834;2022-11-27T07:18:45;101092.55;;;4.42;72.09
50592;BME280;36548;50.506;30.834;2022-11-27T07:19:54;101094.21;;;4.46;72.00
50592;BME280;36548;50.506;30.834;2022-11-27T07:21:05;101103.90;;;4.49;71.77
50592;BME280;36548;50.506;30.834;2022-11-27T07:22:19;101085.83;;;4.61;71.38
50592;BME280;36548;50.506;30.834;2022-11-27T07:23:28;101093.94;;;4.57;71.85
50592;BME280;36548;50.506;30.834;2022-11-27T07:24:38;101089.44;;;4.59;71.33
50592;BME280;36548;50.506;30.834;2022-11-27T07:26:15;101090.95;;;4.69;70.91
50592;BME280;36548;50.506;30.834;2022-11-27T07:27:24;101090.33;;;4.59;70.44
50592;BME280;36548;50.506;30.834;2022-11-27T07:28:36;101090.38;;;4.56;69.84
50592;BME280;36548;50.506;30.834;2022-11-27T07:29:46;101085.11;;;4.55;69.79
50592;BME280;36548;50.506;30.834;2022-11-27T07:30:56;101081.41;;;4.60;70.49
50592;BME280;36548;50.506;30.834;2022-11-27T07:32:12;101087.41;;;4.69;70.19
50592;BME280;36548;50.506;30.834;2022-11-27T07:33:21;101091.51;;;4.48;69.66
50592;BME280;36548;50.506;30.834;2022-11-27T07:34:30;101090.83;;;4.39;70.49
50592;BME280;36548;50.506;30.834;2022-11-27T07:35:39;101098.84;;;4.38;71.41
50592;BME280;36548;50.506;30.834;2022-11-27T07:36:47;101098.13;;;4.31;71.22
50592;BME280;36548;50.506;30.834;2022-11-27T07:38:02;101085.59;;;4.36;71.18
50592;BME280;36548;50.506;30.834;2022-11-27T07:39:11;101097.39;;;4.24;71.26
50592;BME280;36548;50.506;30.834;2022-11-27T07:40:26;101090.02;;;4.36;71.04
50592;BME280;36548;50.506;30.834;2022-11-27T07:41:35;101096.45;;;4.27;70.88
50592;BME280;36548;50.506;30.834;2022-11-27T07:42:50;101092.55;;;4.42;71.05
50592;BME280;36548;50.506;30.834;2022-11-27T07:44:00;101100.14;;;4.21;70.13
50592;BME280;36548;50.506;30.834;2022-11-27T07:45:11;101092.84;;;4.30;70.79
50592;BME280;36548;50.506;30.834;2022-11-27T07:46:22;101093.66;;;4.33;70.51
50592;BME280;36548;50.506;30.834;2022-11-27T07:47:39;101100.29;;;4.51;70.73
50592;BME280;36548;50.506;30.834;2022-11-27T07:48:49;101094.21;;;4.46;70.84
50592;BME280;36548;50.506;30.834;2022-11-27T07:50:08;101087.54;;;4.64;70.67
50592;BME280;36548;50.506;30.834;2022-11-27T07:51:19;101093.00;;;4.58;70.23
50592;BME280;36548;50.506;30.834;2022-11-27T07:52:29;101092.05;;;4.60;69.84
50592;BME280;36548;50.506;30.834;2022-11-27T07:53:39;101092.91;;;4.63;69.72
50592;BME280;36548;50.506;30.834;2022-11-27T07:54:55;101094.28;;;4.77;69.67
50592;BME280;36548;50.506;30.834;2022-11-27T07:56:08;101100.75;;;4.67;69.79
50592;BME280;36548;50.506;30.834;2022-11-27T07:57:26;101089.11;;;4.71;69.99
50592;BME280;36548;50.506;30.834;2022-11-27T07:58:35;101099.36;;;4.52;69.85
50592;BME280;36548;50.506;30.834;2022-11-27T07:59:45;101103.61;;;4.25;69.35
50592;BME280;36548;50.506;30.834;2022-11-27T08:01:04;101099.11;;;4.27;70.31
50592;BME280;36548;50.506;30.834;2022-11-27T08:02:12;101108.32;;;4.12;70.96
50592;BME280;36548;50.506;30.834;2022-11-27T08:03:22;101102.36;;;4.02;71.26
50592;BME280;36548;50.506;30.834;2022-11-27T08:04:32;101101.66;;;3.96;71.34
50592;BME280;36548;50.506;30.834;2022-11-27T08:05:41;101103.70;;;3.83;70.88
50592;BME280;36548;50.506;30.834;2022-11-27T08:06:50;101106.23;;;3.89;71.43
50592;BME280;36548;50.506;30.834;2022-11-27T08:08:11;101096.01;;;4.09;71.74
50592;BME280;36548;50.506;30.834;2022-11-27T08:09:22;101098.84;;;4.02;71.45
50592;BME280;36548;50.506;30.834;2022-11-27T08:10:37;101094.78;;;4.23;71.52
50592;BME280;36548;50.506;30.834;2022-11-27T08:11:46;101099.45;;;4.13;70.65
50592;BME280;36548;50.506;30.834;2022-11-27T08:12:57;101105.45;;;4.21;70.82
50592;BME280;36548;50.506;30.834;2022-11-27T08:14:08;101103.48;;;4.30;71.03
50592;BME280;36548;50.506;30.834;2022-11-27T08:15:17;101104.16;;;4.38;71.05
50592;BME280;36548;50.506;30.834;2022-11-27T08:16:34;101095.75;;;4.55;70.55
50592;BME280;36548;50.506;30.834;2022-11-27T08:17:44;101101.16;;;4.52;70.68
50592;BME280;36548;50.506;30.834;2022-11-27T08:19:00;101091.06;;;4.65;69.75
50592;BME280;36548;50.506;30.834;2022-11-27T08:20:09;101093.13;;;4.53;69.24
50592;BME280;36548;50.506;30.834;2022-11-27T08:21:26;101094.61;;;4.65;69.52
50592;BME280;36548;50.506;30.834;2022-11-27T08:22:36;101099.26;;;4.57;69.97
50592;BME280;36548;50.506;30.834;2022-11-27T08:23:45;101101.11;;;4.53;69.92
50592;BME280;36548;50.506;30.834;2022-11-27T08:24:57;101106.66;;;4.44;69.89
50592;BME280;36548;50.506;30.834;2022-11-27T08:26:07;101099.75;;;4.37;70.42
50592;BME280;36548;50.506;30.834;2022-11-27T08:27:17;101098.33;;;4.23;70.12
50592;BME280;36548;50.506;30.834;2022-11-27T08:28:26;101101.20;;;4.14;70.37
50592;BME280;36548;50.506;30.834;2022-11-27T08:29:38;101104.15;;;4.02;70.37
50592;BME280;36548;50.506;30.834;2022-11-27T08:30:58;101093.36;;;4.08;70.73
50592;BME280;36548;50.506;30.834;2022-11-27T08:32:13;101098.67;;;4.08;71.09
50592;BME280;36548;50.506;30.834;2022-11-27T08:33:22;101100.80;;;3.93;70.76
50592;BME280;36548;50.506;30.834;2022-11-27T08:34:32;101109.62;;;3.96;70.91
50592;BME280;36548;50.506;30.834;2022-11-27T08:35:46;101104.19;;;4.00;71.18
50592;BME280;36548;50.506;30.834;2022-11-27T08:37:02;101090.58;;;4.14;70.92
50592;BME280;36548;50.506;30.834;2022-11-27T08:38:11;101096.14;;;4.03;70.65
50592;BME280;36548;50.506;30.834;2022-11-27T08:39:33;101091.26;;;4.22;70.98
50592;BME280;36548;50.506;30.834;2022-11-27T08:40:42;101091.48;;;4.13;70.59
50592;BME280;36548;50.506;30.834;2022-11-27T08:41:52;101094.09;;;4.15;70.66
50592;BME280;36548;50.506;30.834;2022-11-27T08:43:09;101095.55;;;4.28;70.56
50592;BME280;36548;50.506;30.834;2022-11-27T08:44:22;101093.92;;;4.22;70.97
50592;BME280;36548;50.506;30.834;2022-11-27T08:45:31;101093.92;;;4.22;70.15
50592;BME280;36548;50.506;30.834;2022-11-27T08:46:42;101092.04;;;4.26;70.25
50592;BME280;36548;50.506;30.834;2022-11-27T08:47:57;101089.84;;;4.43;70.27
50592;BME280;36548;50.506;30.834;2022-11-27T08:49:06;101097.17;;;4.34;69.93
50592;BME280;36548;50.506;30.834;2022-11-27T08:50:21;101099.48;;;4.48;69.94
50592;BME280;36548;50.506;30.834;2022-11-27T08:51:31;101100.56;;;4.40;69.97
50592;BME280;36548;50.506;30.834;2022-11-27T08:52:41;101098.72;;;4.42;69.47
50592;BME280;36548;50.506;30.834;2022-11-27T08:53:51;101104.93;;;4.43;69.76
50592;BME280;36548;50.506;30.834;2022-11-27T08:55:07;101101.11;;;4.53;70.07
50592;BME280;36548;50.506;30.834;2022-11-27T08:56:20;101098.00;;;4.36;69.83
50592;BME280;36548;50.506;30.834;2022-11-27T08:57:35;101100.66;;;4.36;70.01
50592;BME280;36548;50.506;30.834;2022-11-27T08:58:46;101096.66;;;4.19;70.16
50592;BME280;36548;50.506;30.834;2022-11-27T09:00:01;101091.95;;;4.31;70.64
50592;BME280;36548;50.506;30.834;2022-11-27T09:01:14;101097.60;;;4.17;69.96
50592;BME280;36548;50.506;30.834;2022-11-27T09:02:26;101102.83;;;4.20;70.12
50592;BME280;36548;50.506;30.834;2022-11-27T09:03:35;101095.32;;;4.01;69.66
50592;BME280;36548;50.506;30.834;2022-11-27T09:04:44;101098.63;;;4.11;70.19
50592;BME280;36548;50.506;30.834;2022-11-27T09:05:53;101096.75;;;4.15;70.62
50592;BME280;36548;50.506;30.834;2022-11-27T09:07:05;101095.97;;;4.11;70.34
50592;BME280;36548;50.506;30.834;2022-11-27T09:08:14;101099.48;;;4.12;70.93
50592;BME280;36548;50.506;30.834;2022-11-27T09:09:31;101094.78;;;4.23;71.01
50592;BME280;36548;50.506;30.834;2022-11-27T09:10:39;101096.79;;;4.13;70.78
50592;BME280;36548;50.506;30.834;2022-11-27T09:11:55;101094.91;;;4.18;70.47
50592;BME280;36548;50.506;30.834;2022-11-27T09:13:04;101095.89;;;4.14;70.35
50592;BME280;36548;50.506;30.834;2022-11-27T09:14:13;101100.26;;;4.17;70.41
50592;BME280;36548;50.506;30.834;2022-11-27T09:15:28;101093.80;;;4.27;70.29
50592;BME280;36548;50.506;30.834;2022-11-27T09:16:37;101092.34;;;4.14;70.22
50592;BME280;36548;50.506;30.834;2022-11-27T09:17:46;101093.19;;;4.16;70.15
50592;BME280;36548;50.506;30.834;2022-11-27T09:18:56;101093.06;;;4.20;70.36
50592;BME280;36548;50.506;30.834;2022-11-27T09:20:11;101087.35;;;4.37;70.53
50592;BME280;36548;50.506;30.834;2022-11-27T09:21:23;101093.70;;;4.30;70.54
50592;BME280;36548;50.506;30.834;2022-11-27T09:22:40;101087.05;;;4.48;70.45
50592;BME280;36548;50.506;30.834;2022-11-27T09:23:53;101081.10;;;4.38;70.04
50592;BME280;36548;50.506;30.834;2022-11-27T09:25:02;101087.36;;;4.36;69.54
50592;BME280;36548;50.506;30.834;2022-11-27T09:26:17;101088.89;;;4.46;69.61
50592;BME280;36548;50.506;30.834;2022-11-27T09:27:26;101097.00;;;4.41;69.98
50592;BME280;36548;50.506;30.834;2022-11-27T09:28:36;101091.55;;;4.46;69.71
50592;BME280;36548;50.506;30.834;2022-11-27T09:29:45;101091.51;;;4.48;69.67
50592;BME280;36548;50.506;30.834;2022-11-27T09:30:56;101079.29;;;4.40;69.60
50592;BME280;36548;50.506;30.834;2022-11-27T09:32:05;101090.02;;;4.36;69.92
50592;BME280;36548;50.506;30.834;2022-11-27T09:33:15;101085.86;;;4.25;69.96
50592;BME280;36548;50.506;30.834;2022-11-27T09:34:26;101094.91;;;4.18;70.32
50592;BME280;36548;50.506;30.834;2022-11-27T09:35:38;101090.70;;;4.09;70.44
50592;BME280;36548;50.506;30.834;2022-11-27T09:36:50;101090.95;;;3.99;70.71
50592;BME280;36548;50.506;30.834;2022-11-27T09:38:05;101083.02;;;3.97;70.52
50592;BME280;36548;50.506;30.834;2022-11-27T09:39:13;101092.02;;;3.90;71.16
50592;BME280;36548;50.506;30.834;2022-11-27T09:40:29;101099.70;;;4.02;70.87
50592;BME280;36548;50.506;30.834;2022-11-27T09:43:04;101084.27;;;4.18;71.04
50592;BME280;36548;50.506;30.834;2022-11-27T09:44:30;101091.16;;;3.89;70.15
50592;BME280;36548;50.506;30.834;2022-11-27T09:45:45;101096.91;;;4.08;70.94
50592;BME280;36548;50.506;30.834;2022-11-27T09:47:09;101085.69;;;4.33;70.95
50592;BME280;36548;50.506;30.834;2022-11-27T09:48:38;101095.69;;;4.22;70.05
50592;BME280;36548;50.506;30.834;2022-11-27T09:49:51;101091.30;;;4.21;69.57
50592;BME280;36548;50.506;30.834;2022-11-27T09:51:29;101082.77;;;4.42;70.22
50592;BME280;36548;50.506;30.834;2022-11-27T09:52:55;101092.62;;;4.39;70.21
50592;BME280;36548;50.506;30.834;2022-11-27T09:54:08;101090.60;;;4.49;70.04
50592;BME280;36548;50.506;30.834;2022-11-27T09:55:30;101081.31;;;4.65;68.91
50592;BME280;36548;50.506;30.834;2022-11-27T09:56:36;101083.21;;;4.60;68.87
50592;BME280;36548;50.506;30.834;2022-11-27T09:58:06;101088.03;;;4.78;68.94
50592;BME280;36548;50.506;30.834;2022-11-27T09:59:19;101081.23;;;4.68;68.80
50592;BME280;36548;50.506;30.834;2022-11-27T10:00:34;101076.67;;;4.72;69.34
50592;BME280;36548;50.506;30.834;2022-11-27T10:01:44;101081.59;;;4.54;69.45
50592;BME280;36548;50.506;30.834;2022-11-27T10:02:56;101082.68;;;4.46;69.55
50592;BME280;36548;50.506;30.834;2022-11-27T10:04:05;101087.35;;;4.37;70.00
50592;BME280;36548;50.506;30.834;2022-11-27T10:18:46;101091.09;;;4.29;70.01
50592;BME280;36548;50.506;30.834;2022-11-27T14:47:19;101091.59;;;1.79;86.47
50592;BME280;36548;50.506;30.834;2022-11-27T14:48:57;101093.17;;;1.92;85.71
50592;BME280;36548;50.506;30.834;2022-11-27T14:50:09;101094.95;;;1.92;85.40
50592;BME280;36548;50.506;30.834;2022-11-27T14:51:44;101092.84;;;2.14;84.88
50592;BME280;36548;50.506;30.834;2022-11-27T14:52:55;101093.77;;;2.11;84.33
50592;BME280;36548;50.506;30.834;2022-11-27T14:54:22;101092.41;;;2.38;83.79
50592;BME280;36548;50.506;30.834;2022-11-27T14:55:32;101100.30;;;2.43;83.22
50592;BME280;36548;50.506;30.834;2022-11-27T14:56:48;101102.42;;;2.72;81.63
50592;BME280;36548;50.506;30.834;2022-11-27T14:57:59;101104.09;;;2.78;81.15
50592;BME280;36548;50.506;30.834;2022-11-27T14:59:20;101095.60;;;3.06;80.57
50592;BME280;36548;50.506;30.834;2022-11-27T15:00:30;101101.73;;;3.08;79.98
50592;BME280;36548;50.506;30.834;2022-11-27T15:02:12;101089.73;;;3.34;79.42
50592;BME280;36548;50.506;30.834;2022-11-27T15:03:15;101101.09;;;3.40;79.02
50592;BME280;36548;50.506;30.834;2022-11-27T15:04:39;101099.55;;;3.71;78.15
50592;BME280;36548;50.506;30.834;2022-11-27T15:06:00;101095.14;;;3.70;77.26
50592;BME280;36548;50.506;30.834;2022-11-27T15:07:17;101096.62;;;3.82;76.71
50592;BME280;36548;50.506;30.834;2022-11-27T15:08:35;101089.80;;;4.09;76.19
50592;BME280;36548;50.506;30.834;2022-11-27T15:09:47;101091.73;;;4.02;75.32
50592;BME280;36548;50.506;30.834;2022-11-27T15:11:04;101086.84;;;4.21;74.56
50592;BME280;36548;50.506;30.834;2022-11-27T15:12:14;101085.09;;;4.20;74.55
50592;BME280;36548;50.506;30.834;2022-11-27T15:13:32;101083.66;;;4.43;74.37
50592;BME280;36548;50.506;30.834;2022-11-27T15:15:06;101084.56;;;4.42;74.13
50592;BME280;36548;50.506;30.834;2022-11-27T15:16:25;101081.31;;;4.65;73.04
50592;BME280;36548;50.506;30.834;2022-11-27T15:17:37;101082.41;;;4.56;72.11
50592;BME280;36548;50.506;30.834;2022-11-27T15:20:15;101081.05;;;4.74;71.43
50592;BME280;36548;50.506;30.834;2022-11-27T15:21:25;101084.79;;;4.67;71.65
50592;BME280;36548;50.506;30.834;2022-11-27T15:22:35;101077.57;;;4.72;71.80
50592;BME280;36548;50.506;30.834;2022-11-27T15:23:47;101087.27;;;4.75;70.85
50592;BME280;36548;50.506;30.834;2022-11-27T15:26:39;101078.43;;;4.73;69.52
50592;BME280;36548;50.506;30.834;2022-11-27T15:27:50;101075.77;;;4.73;69.43
50592;BME280;36548;50.506;30.834;2022-11-27T15:29:00;101081.23;;;4.68;69.16
50592;BME280;36548;50.506;30.834;2022-11-27T15:30:17;101075.67;;;4.77;70.43
50592;BME280;36548;50.506;30.834;2022-11-27T15:31:34;101083.30;;;4.57;70.16
50592;BME280;36548;50.506;30.834;2022-11-27T15:32:49;101087.05;;;4.48;70.76
50592;BME280;36548;50.506;30.834;2022-11-27T15:35:30;101082.50;;;4.53;71.00
50592;BME280;36548;50.506;30.834;2022-11-27T15:36:56;101080.91;;;4.46;71.20
50592;BME280;36548;50.506;30.834;2022-11-27T15:38:15;101076.95;;;4.63;70.95
50592;BME280;36548;50.506;30.834;2022-11-27T15:39:37;101083.34;;;4.55;70.53
50592;BME280;36548;50.506;30.834;2022-11-27T15:40:57;101081.98;;;4.73;70.44
50592;BME280;36548;50.506;30.834;2022-11-27T15:42:09;101089.20;;;4.68;70.60
50592;BME280;36548;50.506;30.834;2022-11-27T15:43:24;101077.19;;;4.86;70.07
50592;BME280;36548;50.506;30.834;2022-11-27T15:44:35;101085.33;;;4.80;70.05
50592;BME280;36548;50.506;30.834;2022-11-27T15:45:50;101086.70;;;4.95;69.90
50592;BME280;36548;50.506;30.834;2022-11-27T15:47:00;101081.61;;;4.87;69.54
50592;BME280;36548;50.506;30.834;2022-11-27T15:48:14;101075.34;;;4.88;69.01
50592;BME280;36548;50.506;30.834;2022-11-27T15:49:26;101077.96;;;4.90;68.60
50592;BME280;36548;50.506;30.834;2022-11-27T15:50:35;101079.95;;;4.83;68.95
50592;BME280;36548;50.506;30.834;2022-11-27T15:51:45;101074.87;;;4.74;68.80
50592;BME280;36548;50.506;30.834;2022-11-27T15:52:53;101077.03;;;4.59;68.64
50592;BME280;36548;50.506;30.834;2022-11-27T15:54:02;101078.13;;;4.51;69.60
50592;BME280;36548;50.506;30.834;2022-11-27T15:55:17;101081.64;;;4.53;70.06
50592;BME280;36548;50.506;30.834;2022-11-27T15:56:26;101085.91;;;4.24;69.14
50592;BME280;36548;50.506;30.834;2022-11-27T15:57:37;101084.41;;;4.12;69.65
50592;BME280;36548;50.506;30.834;2022-11-27T15:58:47;101089.07;;;4.02;70.16
50592;BME280;36548;50.506;30.834;2022-11-27T15:59:57;101082.08;;;3.98;70.53
50592;BME280;36548;50.506;30.834;2022-11-27T16:01:06;101084.82;;;3.95;71.00
50592;BME280;36548;50.506;30.834;2022-11-27T16:02:15;101082.20;;;3.93;71.28
50592;BME280;36548;50.506;30.834;2022-11-27T16:03:27;101083.06;;;3.96;71.07